sensor_id;sensor_type;location;lat;lon;timestamp;temperature;humidity
65034;DHT22;51601;51.356;12.458;2023-02-05T00:00:11;-1.20;96.00
65034;DHT22;51601;51.356;12.458;2023-02-05T00:04:28;-1.20;96.00
65034;DHT22;51601;51.356;12.458;2023-02-05T00:08:47;-1.30;95.80
65034;DHT22;51601;51.356;12.458;2023-02-05T00:13:11;-1.30;95.60
65034;DHT22;51601;51.356;12.458;2023-02-05T00:17:36;-1.40;95.30
65034;DHT22;51601;51.356;12.458;2023-02-05T00:22:00;-1.50;95.10
65034;DHT22;51601;51.356;12.458;2023-02-05T00:26:26;-1.50;95.00
65034;DHT22;51601;51.356;12.458;2023-02-05T00:30:51;-1.50;94.90
65034;DHT22;51601;51.356;12.458;2023-02-05T00:35:15;-1.60;94.90
65034;DHT22;51601;51.356;12.458;2023-02-05T00:39:46;-1.70;94.80
65034;DHT22;51601;51.356;12.458;2023-02-05T00:44:12;-1.80;94.80
65034;DHT22;51601;51.356;12.458;2023-02-05T00:48:36;-1.80;95.00
65034;DHT22;51601;51.356;12.458;2023-02-05T00:53:00;-1.90;95.10
65034;DHT22;51601;51.356;12.458;2023-02-05T00:57:24;-2.00;95.40
65034;DHT22;51601;51.356;12.458;2023-02-05T01:01:50;-2.00;95.60
65034;DHT22;51601;51.356;12.458;2023-02-05T01:06:15;-2.10;95.70
65034;DHT22;51601;51.356;12.458;2023-02-05T01:10:43;-2.10;95.80
65034;DHT22;51601;51.356;12.458;2023-02-05T01:15:09;-2.10;95.80
65034;DHT22;51601;51.356;12.458;2023-02-05T01:19:36;-2.20;95.90
65034;DHT22;51601;51.356;12.458;2023-02-05T01:24:01;-2.20;96.10
65034;DHT22;51601;51.356;12.458;2023-02-05T01:28:26;-2.20;96.20
65034;DHT22;51601;51.356;12.458;2023-02-05T01:32:50;-2.20;96.20
65034;DHT22;51601;51.356;12.458;2023-02-05T01:37:16;-2.30;96.20
65034;DHT22;51601;51.356;12.458;2023-02-05T01:41:41;-2.30;96.30
65034;DHT22;51601;51.356;12.458;2023-02-05T01:46:18;-2.30;96.40
65034;DHT22;51601;51.356;12.458;2023-02-05T01:50:45;-2.30;96.60
65034;DHT22;51601;51.356;12.458;2023-02-05T01:55:13;-2.30;96.70
65034;DHT22;51601;51.356;12.458;2023-02-05T01:59:39;-2.30;96.70
65034;DHT22;51601;51.356;12.458;2023-02-05T02:04:05;-2.40;96.70
65034;DHT22;51601;51.356;12.458;2023-02-05T02:08:29;-2.40;96.80
65034;DHT22;51601;51.356;12.458;2023-02-05T02:12:56;-2.40;96.80
65034;DHT22;51601;51.356;12.458;2023-02-05T02:17:21;-2.50;96.70
65034;DHT22;51601;51.356;12.458;2023-02-05T02:22:18;-2.50;96.70
65034;DHT22;51601;51.356;12.458;2023-02-05T02:26:57;-2.50;96.70
65034;DHT22;51601;51.356;12.458;2023-02-05T02:31:28;-2.60;96.80
65034;DHT22;51601;51.356;12.458;2023-02-05T02:35:57;-2.70;96.90
65034;DHT22;51601;51.356;12.458;2023-02-05T02:40:30;-2.70;97.00
65034;DHT22;51601;51.356;12.458;2023-02-05T02:44:58;-2.80;97.20
65034;DHT22;51601;51.356;12.458;2023-02-05T02:49:38;-2.90;97.10
65034;DHT22;51601;51.356;12.458;2023-02-05T02:54:17;-2.90;97.40
65034;DHT22;51601;51.356;12.458;2023-02-05T02:58:59;-3.00;97.50
65034;DHT22;51601;51.356;12.458;2023-02-05T03:03:48;-3.10;97.70
65034;DHT22;51601;51.356;12.458;2023-02-05T03:08:31;-3.10;98.20
65034;DHT22;51601;51.356;12.458;2023-02-05T03:13:11;-3.00;98.80
65034;DHT22;51601;51.356;12.458;2023-02-05T03:17:56;-3.00;99.20
65034;DHT22;51601;51.356;12.458;2023-02-05T03:22:35;-2.90;99.30
65034;DHT22;51601;51.356;12.458;2023-02-05T03:27:16;-2.90;99.20
65034;DHT22;51601;51.356;12.458;2023-02-05T03:32:00;-2.90;98.90
65034;DHT22;51601;51.356;12.458;2023-02-05T03:36:57;-3.00;98.40
65034;DHT22;51601;51.356;12.458;2023-02-05T03:41:52;-3.10;98.40
65034;DHT22;51601;51.356;12.458;2023-02-05T03:46:54;-3.20;98.80
65034;DHT22;51601;51.356;12.458;2023-02-05T03:51:46;-3.20;99.30
65034;DHT22;51601;51.356;12.458;2023-02-05T03:56:38;-3.20;99.50
65034;DHT22;51601;51.356;12.458;2023-02-05T04:01:25;-3.20;99.80
65034;DHT22;51601;51.356;12.458;2023-02-05T04:06:11;-3.20;99.90
65034;DHT22;51601;51.356;12.458;2023-02-05T04:10:55;-3.20;99.90
65034;DHT22;51601;51.356;12.458;2023-02-05T04:15:42;-3.20;99.90
65034;DHT22;51601;51.356;12.458;2023-02-05T04:20:28;-3.30;99.90
65034;DHT22;51601;51.356;12.458;2023-02-05T04:25:15;-3.30;99.90
65034;DHT22;51601;51.356;12.458;2023-02-05T04:30:00;-3.30;99.90
65034;DHT22;51601;51.356;12.458;2023-02-05T04:34:47;-3.30;99.90
65034;DHT22;51601;51.356;12.458;2023-02-05T04:39:32;-3.30;99.90
65034;DHT22;51601;51.356;12.458;2023-02-05T04:44:17;-3.30;99.90
65034;DHT22;51601;51.356;12.458;2023-02-05T04:49:02;-3.30;99.90
65034;DHT22;51601;51.356;12.458;2023-02-05T04:53:46;-3.30;99.90
65034;DHT22;51601;51.356;12.458;2023-02-05T04:58:30;-3.30;99.90
65034;DHT22;51601;51.356;12.458;2023-02-05T05:03:15;-3.30;99.90
65034;DHT22;51601;51.356;12.458;2023-02-05T05:07:59;-3.30;99.90
65034;DHT22;51601;51.356;12.458;2023-02-05T05:12:43;-3.40;99.90
65034;DHT22;51601;51.356;12.458;2023-02-05T05:17:28;-3.40;99.90
65034;DHT22;51601;51.356;12.458;2023-02-05T05:22:14;-3.50;99.90
65034;DHT22;51601;51.356;12.458;2023-02-05T05:26:58;-3.50;99.90
65034;DHT22;51601;51.356;12.458;2023-02-05T05:31:42;-3.60;99.90
65034;DHT22;51601;51.356;12.458;2023-02-05T05:36:27;-3.60;99.90
65034;DHT22;51601;51.356;12.458;2023-02-05T05:41:17;-3.60;99.90
65034;DHT22;51601;51.356;12.458;2023-02-05T05:46:20;-3.60;99.90
65034;DHT22;51601;51.356;12.458;2023-02-05T05:51:05;-3.50;99.90
65034;DHT22;51601;51.356;12.458;2023-02-05T05:55:49;-3.50;99.90
65034;DHT22;51601;51.356;12.458;2023-02-05T06:00:35;-3.40;99.90
65034;DHT22;51601;51.356;12.458;2023-02-05T06:05:20;-3.40;99.90
65034;DHT22;51601;51.356;12.458;2023-02-05T06:10:05;-3.40;99.90
65034;DHT22;51601;51.356;12.458;2023-02-05T06:14:44;-3.40;99.90
65034;DHT22;51601;51.356;12.458;2023-02-05T06:19:30;-3.30;99.90
65034;DHT22;51601;51.356;12.458;2023-02-05T06:24:14;-3.30;99.90
65034;DHT22;51601;51.356;12.458;2023-02-05T06:28:58;-3.30;99.90
65034;DHT22;51601;51.356;12.458;2023-02-05T06:33:45;-3.20;99.90
65034;DHT22;51601;51.356;12.458;2023-02-05T06:38:30;-3.20;99.90
65034;DHT22;51601;51.356;12.458;2023-02-05T06:43:14;-3.20;99.90
65034;DHT22;51601;51.356;12.458;2023-02-05T06:48:00;-3.10;99.90
65034;DHT22;51601;51.356;12.458;2023-02-05T06:52:44;-3.10;99.90
65034;DHT22;51601;51.356;12.458;2023-02-05T06:57:30;-3.00;99.90
65034;DHT22;51601;51.356;12.458;2023-02-05T07:02:15;-3.00;99.90
65034;DHT22;51601;51.356;12.458;2023-02-05T07:06:59;-3.00;99.90
65034;DHT22;51601;51.356;12.458;2023-02-05T07:11:43;-2.90;99.90
65034;DHT22;51601;51.356;12.458;2023-02-05T07:16:29;-2.80;99.90
65034;DHT22;51601;51.356;12.458;2023-02-05T07:21:15;-2.70;99.90
65034;DHT22;51601;51.356;12.458;2023-02-05T07:26:05;-2.60;99.90
65034;DHT22;51601;51.356;12.458;2023-02-05T07:30:49;-2.50;99.90
65034;DHT22;51601;51.356;12.458;2023-02-05T07:35:37;-2.30;99.90
65034;DHT22;51601;51.356;12.458;2023-02-05T07:40:21;-2.20;99.90
65034;DHT22;51601;51.356;12.458;2023-02-05T07:45:05;-2.20;99.90
65034;DHT22;51601;51.356;12.458;2023-02-05T07:49:49;-2.10;99.90
65034;DHT22;51601;51.356;12.458;2023-02-05T07:54:35;-2.00;99.90
65034;DHT22;51601;51.356;12.458;2023-02-05T07:59:19;-1.80;99.90
65034;DHT22;51601;51.356;12.458;2023-02-05T08:04:03;-1.70;99.90
65034;DHT22;51601;51.356;12.458;2023-02-05T08:08:48;-1.60;99.90
65034;DHT22;51601;51.356;12.458;2023-02-05T08:13:33;-1.60;99.90
65034;DHT22;51601;51.356;12.458;2023-02-05T08:18:17;-1.50;99.90
65034;DHT22;51601;51.356;12.458;2023-02-05T08:23:01;-1.40;99.90
65034;DHT22;51601;51.356;12.458;2023-02-05T08:27:47;-1.30;99.90
65034;DHT22;51601;51.356;12.458;2023-02-05T08:32:32;-1.10;99.90
65034;DHT22;51601;51.356;12.458;2023-02-05T08:37:17;-0.80;99.90
65034;DHT22;51601;51.356;12.458;2023-02-05T08:42:01;-0.60;99.90
65034;DHT22;51601;51.356;12.458;2023-02-05T08:46:45;-0.30;99.90
65034;DHT22;51601;51.356;12.458;2023-02-05T08:51:33;-0.10;99.60
65034;DHT22;51601;51.356;12.458;2023-02-05T08:56:18;0.10;98.90
65034;DHT22;51601;51.356;12.458;2023-02-05T09:01:03;0.30;98.00
65034;DHT22;51601;51.356;12.458;2023-02-05T09:05:48;0.40;96.90
65034;DHT22;51601;51.356;12.458;2023-02-05T09:10:34;0.50;96.50
65034;DHT22;51601;51.356;12.458;2023-02-05T09:15:19;0.60;95.70
65034;DHT22;51601;51.356;12.458;2023-02-05T09:20:04;0.60;94.60
65034;DHT22;51601;51.356;12.458;2023-02-05T09:24:48;0.60;94.60
65034;DHT22;51601;51.356;12.458;2023-02-05T09:29:35;0.60;94.60
65034;DHT22;51601;51.356;12.458;2023-02-05T09:34:19;0.60;93.90
65034;DHT22;51601;51.356;12.458;2023-02-05T09:39:03;0.50;94.30
65034;DHT22;51601;51.356;12.458;2023-02-05T09:44:13;0.60;94.90
65034;DHT22;51601;51.356;12.458;2023-02-05T09:49:02;0.70;95.70
65034;DHT22;51601;51.356;12.458;2023-02-05T09:53:54;0.80;95.20
65034;DHT22;51601;51.356;12.458;2023-02-05T09:58:41;0.90;95.10
65034;DHT22;51601;51.356;12.458;2023-02-05T10:03:30;1.00;94.80
65034;DHT22;51601;51.356;12.458;2023-02-05T10:08:22;1.10;94.30
65034;DHT22;51601;51.356;12.458;2023-02-05T10:13:28;1.20;93.70
65034;DHT22;51601;51.356;12.458;2023-02-05T10:18:22;1.30;93.80
65034;DHT22;51601;51.356;12.458;2023-02-05T10:23:14;1.40;93.30
65034;DHT22;51601;51.356;12.458;2023-02-05T10:28:04;1.40;93.20
65034;DHT22;51601;51.356;12.458;2023-02-05T10:32:55;1.50;92.80
65034;DHT22;51601;51.356;12.458;2023-02-05T10:37:44;1.60;93.20
65034;DHT22;51601;51.356;12.458;2023-02-05T10:42:34;1.70;92.80
65034;DHT22;51601;51.356;12.458;2023-02-05T10:47:24;1.70;92.00
65034;DHT22;51601;51.356;12.458;2023-02-05T10:52:15;1.80;92.30
65034;DHT22;51601;51.356;12.458;2023-02-05T10:57:00;1.80;90.00
65034;DHT22;51601;51.356;12.458;2023-02-05T11:01:45;1.80;89.50
65034;DHT22;51601;51.356;12.458;2023-02-05T11:06:35;1.80;90.10
65034;DHT22;51601;51.356;12.458;2023-02-05T11:11:23;1.80;89.80
65034;DHT22;51601;51.356;12.458;2023-02-05T11:16:09;1.90;88.50
65034;DHT22;51601;51.356;12.458;2023-02-05T11:20:55;1.90;87.00
65034;DHT22;51601;51.356;12.458;2023-02-05T11:25:49;1.90;86.50
65034;DHT22;51601;51.356;12.458;2023-02-05T11:30:36;2.00;85.80
65034;DHT22;51601;51.356;12.458;2023-02-05T11:35:34;2.00;84.80
65034;DHT22;51601;51.356;12.458;2023-02-05T11:40:21;2.10;84.10
65034;DHT22;51601;51.356;12.458;2023-02-05T11:45:15;2.10;83.20
65034;DHT22;51601;51.356;12.458;2023-02-05T11:50:03;2.10;81.40
65034;DHT22;51601;51.356;12.458;2023-02-05T11:54:48;2.10;81.00
65034;DHT22;51601;51.356;12.458;2023-02-05T11:59:33;2.10;80.70
65034;DHT22;51601;51.356;12.458;2023-02-05T12:04:20;2.20;79.60
65034;DHT22;51601;51.356;12.458;2023-02-05T12:09:04;2.20;79.80
65034;DHT22;51601;51.356;12.458;2023-02-05T12:14:01;2.30;79.60
65034;DHT22;51601;51.356;12.458;2023-02-05T12:18:54;2.40;79.70
65034;DHT22;51601;51.356;12.458;2023-02-05T12:23:59;2.50;79.40
65034;DHT22;51601;51.356;12.458;2023-02-05T12:28:57;2.50;78.50
65034;DHT22;51601;51.356;12.458;2023-02-05T12:33:56;2.50;77.20
65034;DHT22;51601;51.356;12.458;2023-02-05T12:38:51;2.40;77.60
65034;DHT22;51601;51.356;12.458;2023-02-05T12:43:42;2.50;77.70
65034;DHT22;51601;51.356;12.458;2023-02-05T12:48:52;2.50;78.40
65034;DHT22;51601;51.356;12.458;2023-02-05T12:53:55;2.60;79.00
65034;DHT22;51601;51.356;12.458;2023-02-05T12:58:48;2.60;78.70
65034;DHT22;51601;51.356;12.458;2023-02-05T13:03:36;2.60;78.70
65034;DHT22;51601;51.356;12.458;2023-02-05T13:08:35;2.60;78.50
65034;DHT22;51601;51.356;12.458;2023-02-05T13:13:33;2.60;78.60
65034;DHT22;51601;51.356;12.458;2023-02-05T13:18:28;2.60;78.30
65034;DHT22;51601;51.356;12.458;2023-02-05T13:23:30;2.50;78.30
65034;DHT22;51601;51.356;12.458;2023-02-05T13:28:36;2.50;77.90
65034;DHT22;51601;51.356;12.458;2023-02-05T13:33:31;2.50;78.40
65034;DHT22;51601;51.356;12.458;2023-02-05T13:38:41;2.50;78.50
65034;DHT22;51601;51.356;12.458;2023-02-05T13:43:56;2.50;78.40
65034;DHT22;51601;51.356;12.458;2023-02-05T13:49:13;2.40;77.90
65034;DHT22;51601;51.356;12.458;2023-02-05T13:59:43;2.40;79.20
65034;DHT22;51601;51.356;12.458;2023-02-05T14:04:43;2.30;80.30
65034;DHT22;51601;51.356;12.458;2023-02-05T14:09:53;2.30;80.70
65034;DHT22;51601;51.356;12.458;2023-02-05T14:14:39;2.20;81.00
65034;DHT22;51601;51.356;12.458;2023-02-05T14:19:54;2.10;81.40
65034;DHT22;51601;51.356;12.458;2023-02-05T14:24:58;2.00;81.80
65034;DHT22;51601;51.356;12.458;2023-02-05T14:29:48;1.90;82.00
65034;DHT22;51601;51.356;12.458;2023-02-05T14:34:48;1.90;82.70
65034;DHT22;51601;51.356;12.458;2023-02-05T14:39:46;1.80;83.30
65034;DHT22;51601;51.356;12.458;2023-02-05T14:44:35;1.70;83.70
65034;DHT22;51601;51.356;12.458;2023-02-05T14:49:34;1.70;83.80
65034;DHT22;51601;51.356;12.458;2023-02-05T14:54:27;1.60;84.10
65034;DHT22;51601;51.356;12.458;2023-02-05T14:59:23;1.60;84.40
65034;DHT22;51601;51.356;12.458;2023-02-05T15:04:38;1.50;84.60
65034;DHT22;51601;51.356;12.458;2023-02-05T15:09:37;1.40;84.80
65034;DHT22;51601;51.356;12.458;2023-02-05T15:14:50;1.40;85.10
65034;DHT22;51601;51.356;12.458;2023-02-05T15:19:40;1.30;85.30
65034;DHT22;51601;51.356;12.458;2023-02-05T15:24:35;1.20;85.60
65034;DHT22;51601;51.356;12.458;2023-02-05T15:29:24;1.20;85.80
65034;DHT22;51601;51.356;12.458;2023-02-05T15:34:33;1.10;86.20
65034;DHT22;51601;51.356;12.458;2023-02-05T15:39:27;1.00;87.20
65034;DHT22;51601;51.356;12.458;2023-02-05T15:44:25;1.00;86.90
65034;DHT22;51601;51.356;12.458;2023-02-05T15:49:11;0.90;87.20
65034;DHT22;51601;51.356;12.458;2023-02-05T15:54:03;0.80;87.30
65034;DHT22;51601;51.356;12.458;2023-02-05T15:58:49;0.70;88.00
65034;DHT22;51601;51.356;12.458;2023-02-05T16:03:35;0.70;88.90
65034;DHT22;51601;51.356;12.458;2023-02-05T16:08:23;0.50;89.80
65034;DHT22;51601;51.356;12.458;2023-02-05T16:13:17;0.40;90.30
65034;DHT22;51601;51.356;12.458;2023-02-05T16:18:07;0.20;90.70
65034;DHT22;51601;51.356;12.458;2023-02-05T16:22:57;0.10;91.10
65034;DHT22;51601;51.356;12.458;2023-02-05T16:27:45;0.00;92.00
65034;DHT22;51601;51.356;12.458;2023-02-05T16:32:36;-0.20;92.40
65034;DHT22;51601;51.356;12.458;2023-02-05T16:37:27;-0.30;92.80
65034;DHT22;51601;51.356;12.458;2023-02-05T16:42:30;-0.40;93.20
65034;DHT22;51601;51.356;12.458;2023-02-05T16:47:17;-0.50;93.60
65034;DHT22;51601;51.356;12.458;2023-02-05T16:52:28;-0.60;94.30
65034;DHT22;51601;51.356;12.458;2023-02-05T16:57:15;-0.70;94.30
65034;DHT22;51601;51.356;12.458;2023-02-05T17:02:21;-0.70;94.60
65034;DHT22;51601;51.356;12.458;2023-02-05T17:07:17;-0.80;94.70
65034;DHT22;51601;51.356;12.458;2023-02-05T17:12:35;-0.90;94.90
65034;DHT22;51601;51.356;12.458;2023-02-05T17:17:21;-1.00;95.10
65034;DHT22;51601;51.356;12.458;2023-02-05T17:22:20;-1.00;95.20
65034;DHT22;51601;51.356;12.458;2023-02-05T17:27:08;-1.10;95.20
65034;DHT22;51601;51.356;12.458;2023-02-05T17:31:58;-1.20;95.10
65034;DHT22;51601;51.356;12.458;2023-02-05T17:36:43;-1.20;95.00
65034;DHT22;51601;51.356;12.458;2023-02-05T17:41:35;-1.20;94.80
65034;DHT22;51601;51.356;12.458;2023-02-05T17:46:37;-1.30;94.60
65034;DHT22;51601;51.356;12.458;2023-02-05T17:51:24;-1.30;94.30
65034;DHT22;51601;51.356;12.458;2023-02-05T17:56:09;-1.40;94.20
65034;DHT22;51601;51.356;12.458;2023-02-05T18:00:54;-1.40;94.40
65034;DHT22;51601;51.356;12.458;2023-02-05T18:05:39;-1.50;94.00
65034;DHT22;51601;51.356;12.458;2023-02-05T18:10:30;-1.60;94.10
65034;DHT22;51601;51.356;12.458;2023-02-05T18:15:14;-1.60;94.00
65034;DHT22;51601;51.356;12.458;2023-02-05T18:20:07;-1.70;94.10
65034;DHT22;51601;51.356;12.458;2023-02-05T18:24:51;-1.70;94.20
65034;DHT22;51601;51.356;12.458;2023-02-05T18:29:41;-1.80;94.30
65034;DHT22;51601;51.356;12.458;2023-02-05T18:34:26;-1.80;94.30
65034;DHT22;51601;51.356;12.458;2023-02-05T18:39:10;-1.90;94.30
65034;DHT22;51601;51.356;12.458;2023-02-05T18:43:56;-1.90;94.20
65034;DHT22;51601;51.356;12.458;2023-02-05T18:48:47;-2.00;94.30
65034;DHT22;51601;51.356;12.458;2023-02-05T18:53:32;-2.10;94.50
65034;DHT22;51601;51.356;12.458;2023-02-05T18:58:16;-2.10;94.70
65034;DHT22;51601;51.356;12.458;2023-02-05T19:03:03;-2.20;94.80
65034;DHT22;51601;51.356;12.458;2023-02-05T19:07:49;-2.20;94.90
65034;DHT22;51601;51.356;12.458;2023-02-05T19:12:38;-2.30;95.00
65034;DHT22;51601;51.356;12.458;2023-02-05T19:17:23;-2.30;95.10
65034;DHT22;51601;51.356;12.458;2023-02-05T19:22:09;-2.40;94.90
65034;DHT22;51601;51.356;12.458;2023-02-05T19:26:57;-2.50;95.10
65034;DHT22;51601;51.356;12.458;2023-02-05T19:31:42;-2.50;94.90
65034;DHT22;51601;51.356;12.458;2023-02-05T19:36:28;-2.60;95.00
65034;DHT22;51601;51.356;12.458;2023-02-05T19:41:13;-2.70;95.30
65034;DHT22;51601;51.356;12.458;2023-02-05T19:46:02;-2.80;95.50
65034;DHT22;51601;51.356;12.458;2023-02-05T19:50:49;-2.80;95.70
65034;DHT22;51601;51.356;12.458;2023-02-05T19:55:34;-2.90;95.90
65034;DHT22;51601;51.356;12.458;2023-02-05T20:00:19;-2.90;96.10
65034;DHT22;51601;51.356;12.458;2023-02-05T20:05:09;-2.90;96.40
65034;DHT22;51601;51.356;12.458;2023-02-05T20:09:53;-3.00;96.50
65034;DHT22;51601;51.356;12.458;2023-02-05T20:14:37;-3.00;96.70
65034;DHT22;51601;51.356;12.458;2023-02-05T20:19:22;-3.00;96.80
65034;DHT22;51601;51.356;12.458;2023-02-05T20:24:15;-3.00;96.90
65034;DHT22;51601;51.356;12.458;2023-02-05T20:29:00;-3.00;96.90
65034;DHT22;51601;51.356;12.458;2023-02-05T20:34:05;-3.10;96.90
65034;DHT22;51601;51.356;12.458;2023-02-05T20:38:55;-3.10;97.00
65034;DHT22;51601;51.356;12.458;2023-02-05T20:43:41;-3.20;97.00
65034;DHT22;51601;51.356;12.458;2023-02-05T20:48:25;-3.20;97.10
65034;DHT22;51601;51.356;12.458;2023-02-05T20:53:11;-3.30;97.10
65034;DHT22;51601;51.356;12.458;2023-02-05T20:57:55;-3.30;97.10
65034;DHT22;51601;51.356;12.458;2023-02-05T21:02:44;-3.40;97.30
65034;DHT22;51601;51.356;12.458;2023-02-05T21:07:28;-3.50;97.30
65034;DHT22;51601;51.356;12.458;2023-02-05T21:12:16;-3.50;97.40
65034;DHT22;51601;51.356;12.458;2023-02-05T21:17:00;-3.60;97.60
65034;DHT22;51601;51.356;12.458;2023-02-05T21:21:46;-3.70;97.70
65034;DHT22;51601;51.356;12.458;2023-02-05T21:26:36;-3.70;97.80
65034;DHT22;51601;51.356;12.458;2023-02-05T21:31:21;-3.80;97.90
65034;DHT22;51601;51.356;12.458;2023-02-05T21:36:15;-3.80;98.00
65034;DHT22;51601;51.356;12.458;2023-02-05T21:41:09;-3.80;98.20
65034;DHT22;51601;51.356;12.458;2023-02-05T21:46:00;-3.90;98.30
65034;DHT22;51601;51.356;12.458;2023-02-05T21:50:44;-3.90;98.50
65034;DHT22;51601;51.356;12.458;2023-02-05T21:55:32;-3.90;98.60
65034;DHT22;51601;51.356;12.458;2023-02-05T22:00:20;-3.90;98.60
65034;DHT22;51601;51.356;12.458;2023-02-05T22:05:08;-3.90;98.60
65034;DHT22;51601;51.356;12.458;2023-02-05T22:09:56;-4.00;98.50
65034;DHT22;51601;51.356;12.458;2023-02-05T22:14:41;-4.00;98.60
65034;DHT22;51601;51.356;12.458;2023-02-05T22:19:30;-4.20;98.50
65034;DHT22;51601;51.356;12.458;2023-02-05T22:24:16;-4.20;98.50
65034;DHT22;51601;51.356;12.458;2023-02-05T22:29:03;-4.30;98.80
65034;DHT22;51601;51.356;12.458;2023-02-05T22:33:48;-4.30;98.90
65034;DHT22;51601;51.356;12.458;2023-02-05T22:38:37;-4.30;99.10
65034;DHT22;51601;51.356;12.458;2023-02-05T22:43:22;-4.40;99.10
65034;DHT22;51601;51.356;12.458;2023-02-05T22:48:06;-4.40;99.20
65034;DHT22;51601;51.356;12.458;2023-02-05T22:52:52;-4.40;99.50
65034;DHT22;51601;51.356;12.458;2023-02-05T22:57:37;-4.50;99.40
65034;DHT22;51601;51.356;12.458;2023-02-05T23:02:21;-4.50;99.70
65034;DHT22;51601;51.356;12.458;2023-02-05T23:07:08;-4.50;99.90
65034;DHT22;51601;51.356;12.458;2023-02-05T23:11:54;-4.50;99.80
65034;DHT22;51601;51.356;12.458;2023-02-05T23:16:42;-4.50;99.90
65034;DHT22;51601;51.356;12.458;2023-02-05T23:21:29;-4.50;99.90
65034;DHT22;51601;51.356;12.458;2023-02-05T23:26:16;-4.60;99.90
65034;DHT22;51601;51.356;12.458;2023-02-05T23:31:01;-4.60;99.90
65034;DHT22;51601;51.356;12.458;2023-02-05T23:35:48;-4.60;99.90
65034;DHT22;51601;51.356;12.458;2023-02-05T23:40:32;-4.70;99.90
65034;DHT22;51601;51.356;12.458;2023-02-05T23:45:17;-4.70;99.80
65034;DHT22;51601;51.356;12.458;2023-02-05T23:50:01;-4.80;99.70
65034;DHT22;51601;51.356;12.458;2023-02-05T23:54:48;-4.80;99.70
65034;DHT22;51601;51.356;12.458;2023-02-05T23:59:32;-4.90;99.90
